sensor_id;sensor_type;location;lat;lon;timestamp;temperature;humidity
25550;DHT22;13444;50.562;7.262;2023-05-10T00:00:36;14.90;99.90
25550;DHT22;13444;50.562;7.262;2023-05-10T00:03:02;14.90;99.90
25550;DHT22;13444;50.562;7.262;2023-05-10T00:05:30;14.80;99.90
25550;DHT22;13444;50.562;7.262;2023-05-10T00:07:55;14.80;99.90
25550;DHT22;13444;50.562;7.262;2023-05-10T00:10:21;14.80;99.90
25550;DHT22;13444;50.562;7.262;2023-05-10T00:12:46;14.80;99.90
25550;DHT22;13444;50.562;7.262;2023-05-10T00:15:12;14.80;99.90
25550;DHT22;13444;50.562;7.262;2023-05-10T00:17:37;14.80;99.90
25550;DHT22;13444;50.562;7.262;2023-05-10T00:20:03;14.80;99.90
25550;DHT22;13444;50.562;7.262;2023-05-10T00:22:30;14.70;99.90
25550;DHT22;13444;50.562;7.262;2023-05-10T00:24:56;14.70;99.90
25550;DHT22;13444;50.562;7.262;2023-05-10T00:27:21;14.70;99.90
25550;DHT22;13444;50.562;7.262;2023-05-10T00:29:47;14.70;99.90
25550;DHT22;13444;50.562;7.262;2023-05-10T00:32:12;14.70;99.90
25550;DHT22;13444;50.562;7.262;2023-05-10T00:34:39;14.60;99.90
25550;DHT22;13444;50.562;7.262;2023-05-10T00:37:05;14.60;99.90
25550;DHT22;13444;50.562;7.262;2023-05-10T00:39:30;14.60;99.90
25550;DHT22;13444;50.562;7.262;2023-05-10T00:41:56;14.60;99.90
25550;DHT22;13444;50.562;7.262;2023-05-10T00:44:22;14.60;99.90
25550;DHT22;13444;50.562;7.262;2023-05-10T00:46:49;14.60;99.90
25550;DHT22;13444;50.562;7.262;2023-05-10T00:49:15;14.50;99.90
25550;DHT22;13444;50.562;7.262;2023-05-10T00:51:41;14.50;99.90
25550;DHT22;13444;50.562;7.262;2023-05-10T00:54:09;14.60;99.90
25550;DHT22;13444;50.562;7.262;2023-05-10T00:56:36;14.50;99.90
25550;DHT22;13444;50.562;7.262;2023-05-10T00:59:02;14.50;99.90
25550;DHT22;13444;50.562;7.262;2023-05-10T01:01:28;14.50;99.90
25550;DHT22;13444;50.562;7.262;2023-05-10T01:03:55;14.50;99.90
25550;DHT22;13444;50.562;7.262;2023-05-10T01:06:21;14.40;99.90
25550;DHT22;13444;50.562;7.262;2023-05-10T01:08:46;14.40;99.90
25550;DHT22;13444;50.562;7.262;2023-05-10T01:11:12;14.40;99.90
25550;DHT22;13444;50.562;7.262;2023-05-10T01:13:40;14.30;99.90
25550;DHT22;13444;50.562;7.262;2023-05-10T01:16:06;14.30;99.90
25550;DHT22;13444;50.562;7.262;2023-05-10T01:18:40;14.30;99.90
25550;DHT22;13444;50.562;7.262;2023-05-10T01:24:29;14.20;99.90
25550;DHT22;13444;50.562;7.262;2023-05-10T01:32:35;14.20;99.90
25550;DHT22;13444;50.562;7.262;2023-05-10T01:35:26;14.20;99.90
25550;DHT22;13444;50.562;7.262;2023-05-10T01:38:17;14.20;99.90
25550;DHT22;13444;50.562;7.262;2023-05-10T01:43:28;14.10;99.90
25550;DHT22;13444;50.562;7.262;2023-05-10T01:46:05;14.10;99.90
25550;DHT22;13444;50.562;7.262;2023-05-10T01:48:38;14.10;99.90
25550;DHT22;13444;50.562;7.262;2023-05-10T01:51:06;14.10;99.90
25550;DHT22;13444;50.562;7.262;2023-05-10T01:53:33;14.10;99.90
25550;DHT22;13444;50.562;7.262;2023-05-10T01:56:02;14.10;99.90
25550;DHT22;13444;50.562;7.262;2023-05-10T01:58:30;14.00;99.90
25550;DHT22;13444;50.562;7.262;2023-05-10T02:00:59;14.00;99.90
25550;DHT22;13444;50.562;7.262;2023-05-10T02:03:26;14.00;99.90
25550;DHT22;13444;50.562;7.262;2023-05-10T02:05:54;14.00;99.90
25550;DHT22;13444;50.562;7.262;2023-05-10T02:08:21;14.00;99.90
25550;DHT22;13444;50.562;7.262;2023-05-10T02:10:50;13.90;99.90
25550;DHT22;13444;50.562;7.262;2023-05-10T02:13:17;13.90;99.90
25550;DHT22;13444;50.562;7.262;2023-05-10T02:15:44;13.90;99.90
25550;DHT22;13444;50.562;7.262;2023-05-10T02:18:13;13.90;99.90
25550;DHT22;13444;50.562;7.262;2023-05-10T02:20:40;13.80;99.90
25550;DHT22;13444;50.562;7.262;2023-05-10T02:23:07;13.80;99.90
25550;DHT22;13444;50.562;7.262;2023-05-10T02:25:34;13.80;99.90
25550;DHT22;13444;50.562;7.262;2023-05-10T02:28:02;13.80;99.90
25550;DHT22;13444;50.562;7.262;2023-05-10T02:30:29;13.80;99.90
25550;DHT22;13444;50.562;7.262;2023-05-10T02:32:56;13.80;99.90
25550;DHT22;13444;50.562;7.262;2023-05-10T02:35:23;13.90;99.90
25550;DHT22;13444;50.562;7.262;2023-05-10T02:37:49;13.80;99.90
25550;DHT22;13444;50.562;7.262;2023-05-10T02:40:16;13.90;99.90
25550;DHT22;13444;50.562;7.262;2023-05-10T02:42:44;13.90;99.90
25550;DHT22;13444;50.562;7.262;2023-05-10T02:45:14;13.90;99.90
25550;DHT22;13444;50.562;7.262;2023-05-10T02:47:40;13.90;99.90
25550;DHT22;13444;50.562;7.262;2023-05-10T02:50:06;13.90;99.90
25550;DHT22;13444;50.562;7.262;2023-05-10T02:52:47;13.90;99.90
25550;DHT22;13444;50.562;7.262;2023-05-10T02:55:16;13.90;99.90
25550;DHT22;13444;50.562;7.262;2023-05-10T02:57:50;14.00;99.90
25550;DHT22;13444;50.562;7.262;2023-05-10T03:00:17;14.00;99.90
25550;DHT22;13444;50.562;7.262;2023-05-10T03:02:42;14.00;99.90
25550;DHT22;13444;50.562;7.262;2023-05-10T03:05:08;14.00;99.90
25550;DHT22;13444;50.562;7.262;2023-05-10T03:07:34;14.00;99.90
25550;DHT22;13444;50.562;7.262;2023-05-10T03:10:00;14.00;99.90
25550;DHT22;13444;50.562;7.262;2023-05-10T03:15:29;14.00;99.90
25550;DHT22;13444;50.562;7.262;2023-05-10T03:18:12;14.00;99.90
25550;DHT22;13444;50.562;7.262;2023-05-10T03:20:42;14.00;99.90
25550;DHT22;13444;50.562;7.262;2023-05-10T03:25:44;14.00;99.90
25550;DHT22;13444;50.562;7.262;2023-05-10T03:28:12;14.00;99.90
25550;DHT22;13444;50.562;7.262;2023-05-10T03:30:41;13.90;99.90
25550;DHT22;13444;50.562;7.262;2023-05-10T03:33:07;13.90;99.90
25550;DHT22;13444;50.562;7.262;2023-05-10T03:35:32;13.90;99.90
25550;DHT22;13444;50.562;7.262;2023-05-10T03:37:58;13.80;99.90
25550;DHT22;13444;50.562;7.262;2023-05-10T03:40:24;13.80;99.90
25550;DHT22;13444;50.562;7.262;2023-05-10T03:42:50;13.80;99.90
25550;DHT22;13444;50.562;7.262;2023-05-10T03:45:15;13.80;99.90
25550;DHT22;13444;50.562;7.262;2023-05-10T03:47:41;13.80;99.90
25550;DHT22;13444;50.562;7.262;2023-05-10T03:50:07;13.80;99.90
25550;DHT22;13444;50.562;7.262;2023-05-10T03:52:32;13.80;99.90
25550;DHT22;13444;50.562;7.262;2023-05-10T03:54:58;13.80;99.90
25550;DHT22;13444;50.562;7.262;2023-05-10T03:57:24;13.80;99.90
25550;DHT22;13444;50.562;7.262;2023-05-10T03:59:49;13.80;99.90
25550;DHT22;13444;50.562;7.262;2023-05-10T04:02:15;13.80;99.90
25550;DHT22;13444;50.562;7.262;2023-05-10T04:04:40;13.80;99.90
25550;DHT22;13444;50.562;7.262;2023-05-10T04:07:06;13.80;99.90
25550;DHT22;13444;50.562;7.262;2023-05-10T04:09:31;13.70;99.90
25550;DHT22;13444;50.562;7.262;2023-05-10T04:11:58;13.70;99.90
25550;DHT22;13444;50.562;7.262;2023-05-10T04:14:24;13.70;99.90
25550;DHT22;13444;50.562;7.262;2023-05-10T04:16:50;13.70;99.90
25550;DHT22;13444;50.562;7.262;2023-05-10T04:19:15;13.70;99.90
25550;DHT22;13444;50.562;7.262;2023-05-10T04:21:41;13.70;99.90
25550;DHT22;13444;50.562;7.262;2023-05-10T04:24:06;13.60;99.90
25550;DHT22;13444;50.562;7.262;2023-05-10T04:26:32;13.60;99.90
25550;DHT22;13444;50.562;7.262;2023-05-10T04:28:57;13.60;99.90
25550;DHT22;13444;50.562;7.262;2023-05-10T04:31:23;13.60;99.90
25550;DHT22;13444;50.562;7.262;2023-05-10T04:33:48;13.60;99.90
25550;DHT22;13444;50.562;7.262;2023-05-10T04:36:15;13.60;99.90
25550;DHT22;13444;50.562;7.262;2023-05-10T04:38:40;13.60;99.90
25550;DHT22;13444;50.562;7.262;2023-05-10T04:41:10;13.60;99.90
25550;DHT22;13444;50.562;7.262;2023-05-10T04:43:36;13.60;99.90
25550;DHT22;13444;50.562;7.262;2023-05-10T04:46:02;13.60;99.90
25550;DHT22;13444;50.562;7.262;2023-05-10T04:48:28;13.60;99.90
25550;DHT22;13444;50.562;7.262;2023-05-10T04:50:53;13.60;99.90
25550;DHT22;13444;50.562;7.262;2023-05-10T04:53:19;13.60;99.90
25550;DHT22;13444;50.562;7.262;2023-05-10T04:55:45;13.60;99.90
25550;DHT22;13444;50.562;7.262;2023-05-10T04:58:11;13.60;99.90
25550;DHT22;13444;50.562;7.262;2023-05-10T05:00:36;13.70;99.90
25550;DHT22;13444;50.562;7.262;2023-05-10T05:03:02;13.70;99.90
25550;DHT22;13444;50.562;7.262;2023-05-10T05:05:27;13.70;99.90
25550;DHT22;13444;50.562;7.262;2023-05-10T05:07:53;13.70;99.90
25550;DHT22;13444;50.562;7.262;2023-05-10T05:10:18;13.70;99.90
25550;DHT22;13444;50.562;7.262;2023-05-10T05:12:44;13.70;99.90
25550;DHT22;13444;50.562;7.262;2023-05-10T05:15:10;13.80;99.90
25550;DHT22;13444;50.562;7.262;2023-05-10T05:17:36;13.80;99.90
25550;DHT22;13444;50.562;7.262;2023-05-10T05:20:02;13.90;99.90
25550;DHT22;13444;50.562;7.262;2023-05-10T05:22:28;14.30;99.90
25550;DHT22;13444;50.562;7.262;2023-05-10T05:24:54;14.70;99.90
25550;DHT22;13444;50.562;7.262;2023-05-10T05:27:20;15.10;99.90
25550;DHT22;13444;50.562;7.262;2023-05-10T05:29:53;15.20;99.90
25550;DHT22;13444;50.562;7.262;2023-05-10T05:32:19;15.30;99.90
25550;DHT22;13444;50.562;7.262;2023-05-10T05:34:45;15.50;99.90
25550;DHT22;13444;50.562;7.262;2023-05-10T05:37:15;15.60;99.90
25550;DHT22;13444;50.562;7.262;2023-05-10T05:39:41;15.80;99.90
25550;DHT22;13444;50.562;7.262;2023-05-10T05:42:11;16.00;99.90
25550;DHT22;13444;50.562;7.262;2023-05-10T05:44:37;16.00;99.90
25550;DHT22;13444;50.562;7.262;2023-05-10T05:47:03;16.00;99.90
25550;DHT22;13444;50.562;7.262;2023-05-10T05:49:28;15.90;99.90
25550;DHT22;13444;50.562;7.262;2023-05-10T05:51:54;15.80;99.90
25550;DHT22;13444;50.562;7.262;2023-05-10T05:54:20;15.70;99.90
25550;DHT22;13444;50.562;7.262;2023-05-10T05:56:45;15.70;99.90
25550;DHT22;13444;50.562;7.262;2023-05-10T05:59:11;15.90;99.90
25550;DHT22;13444;50.562;7.262;2023-05-10T06:01:37;16.00;99.90
25550;DHT22;13444;50.562;7.262;2023-05-10T06:04:02;16.00;99.90
25550;DHT22;13444;50.562;7.262;2023-05-10T06:06:28;16.10;99.90
25550;DHT22;13444;50.562;7.262;2023-05-10T06:08:54;16.00;99.90
25550;DHT22;13444;50.562;7.262;2023-05-10T06:11:19;15.80;99.90
25550;DHT22;13444;50.562;7.262;2023-05-10T06:13:46;15.60;99.90
25550;DHT22;13444;50.562;7.262;2023-05-10T06:16:12;15.50;99.90
25550;DHT22;13444;50.562;7.262;2023-05-10T06:18:38;15.40;99.90
25550;DHT22;13444;50.562;7.262;2023-05-10T06:21:04;15.30;99.90
25550;DHT22;13444;50.562;7.262;2023-05-10T06:23:29;15.20;99.90
25550;DHT22;13444;50.562;7.262;2023-05-10T06:25:55;15.20;99.90
25550;DHT22;13444;50.562;7.262;2023-05-10T06:28:20;15.20;99.90
25550;DHT22;13444;50.562;7.262;2023-05-10T06:30:46;15.30;99.90
25550;DHT22;13444;50.562;7.262;2023-05-10T06:33:11;15.30;99.90
25550;DHT22;13444;50.562;7.262;2023-05-10T06:35:37;15.50;99.90
25550;DHT22;13444;50.562;7.262;2023-05-10T06:38:04;15.60;99.90
25550;DHT22;13444;50.562;7.262;2023-05-10T06:40:29;15.60;99.90
25550;DHT22;13444;50.562;7.262;2023-05-10T06:42:55;15.60;99.90
25550;DHT22;13444;50.562;7.262;2023-05-10T06:45:20;15.60;99.90
25550;DHT22;13444;50.562;7.262;2023-05-10T06:47:46;15.60;99.90
25550;DHT22;13444;50.562;7.262;2023-05-10T06:50:12;15.60;99.90
25550;DHT22;13444;50.562;7.262;2023-05-10T06:52:37;15.60;99.90
25550;DHT22;13444;50.562;7.262;2023-05-10T06:55:04;15.60;99.90
25550;DHT22;13444;50.562;7.262;2023-05-10T06:57:30;15.60;99.90
25550;DHT22;13444;50.562;7.262;2023-05-10T06:59:56;15.60;99.90
25550;DHT22;13444;50.562;7.262;2023-05-10T07:02:22;15.70;99.90
25550;DHT22;13444;50.562;7.262;2023-05-10T07:04:48;15.70;99.90
25550;DHT22;13444;50.562;7.262;2023-05-10T07:07:14;15.70;99.90
25550;DHT22;13444;50.562;7.262;2023-05-10T07:09:40;15.60;99.90
25550;DHT22;13444;50.562;7.262;2023-05-10T07:12:05;15.60;99.90
25550;DHT22;13444;50.562;7.262;2023-05-10T07:14:31;15.50;99.90
25550;DHT22;13444;50.562;7.262;2023-05-10T07:16:56;15.50;99.90
25550;DHT22;13444;50.562;7.262;2023-05-10T07:19:22;15.60;99.90
25550;DHT22;13444;50.562;7.262;2023-05-10T07:21:47;15.70;99.90
25550;DHT22;13444;50.562;7.262;2023-05-10T07:24:13;15.70;99.90
25550;DHT22;13444;50.562;7.262;2023-05-10T07:26:38;15.80;99.90
25550;DHT22;13444;50.562;7.262;2023-05-10T07:29:04;15.80;99.90
25550;DHT22;13444;50.562;7.262;2023-05-10T07:31:29;15.80;99.90
25550;DHT22;13444;50.562;7.262;2023-05-10T07:33:55;15.90;99.90
25550;DHT22;13444;50.562;7.262;2023-05-10T07:36:20;15.90;99.90
25550;DHT22;13444;50.562;7.262;2023-05-10T07:38:46;15.90;99.90
25550;DHT22;13444;50.562;7.262;2023-05-10T07:41:12;15.80;99.90
25550;DHT22;13444;50.562;7.262;2023-05-10T07:43:37;15.70;99.90
25550;DHT22;13444;50.562;7.262;2023-05-10T07:46:03;15.70;99.90
25550;DHT22;13444;50.562;7.262;2023-05-10T07:48:29;15.70;99.90
25550;DHT22;13444;50.562;7.262;2023-05-10T07:50:54;15.60;99.90
25550;DHT22;13444;50.562;7.262;2023-05-10T07:53:20;15.60;99.90
25550;DHT22;13444;50.562;7.262;2023-05-10T07:55:59;15.70;99.90
25550;DHT22;13444;50.562;7.262;2023-05-10T07:58:25;15.70;99.90
25550;DHT22;13444;50.562;7.262;2023-05-10T08:00:50;15.70;99.90
25550;DHT22;13444;50.562;7.262;2023-05-10T08:03:16;15.80;99.90
25550;DHT22;13444;50.562;7.262;2023-05-10T08:05:42;16.00;99.90
25550;DHT22;13444;50.562;7.262;2023-05-10T08:08:07;16.20;99.90
25550;DHT22;13444;50.562;7.262;2023-05-10T08:10:33;16.30;99.90
25550;DHT22;13444;50.562;7.262;2023-05-10T08:12:58;16.50;99.90
25550;DHT22;13444;50.562;7.262;2023-05-10T08:15:24;16.70;99.90
25550;DHT22;13444;50.562;7.262;2023-05-10T20:16:42;13.60;99.90
25550;DHT22;13444;50.562;7.262;2023-05-10T20:19:07;13.50;99.90
25550;DHT22;13444;50.562;7.262;2023-05-10T20:21:33;13.60;99.90
25550;DHT22;13444;50.562;7.262;2023-05-10T20:23:58;13.50;99.90
25550;DHT22;13444;50.562;7.262;2023-05-10T20:26:24;13.40;99.90
25550;DHT22;13444;50.562;7.262;2023-05-10T20:28:50;13.40;99.90
25550;DHT22;13444;50.562;7.262;2023-05-10T20:31:15;13.40;99.90
25550;DHT22;13444;50.562;7.262;2023-05-10T20:33:41;13.40;99.90
25550;DHT22;13444;50.562;7.262;2023-05-10T20:36:07;13.40;99.90
25550;DHT22;13444;50.562;7.262;2023-05-10T20:38:34;13.40;99.90
25550;DHT22;13444;50.562;7.262;2023-05-10T20:40:59;13.40;99.90
25550;DHT22;13444;50.562;7.262;2023-05-10T20:43:25;13.30;99.90
25550;DHT22;13444;50.562;7.262;2023-05-10T20:45:50;13.30;99.90
25550;DHT22;13444;50.562;7.262;2023-05-10T20:48:18;13.30;99.90
25550;DHT22;13444;50.562;7.262;2023-05-10T20:50:43;13.40;99.90
25550;DHT22;13444;50.562;7.262;2023-05-10T20:53:09;13.40;99.90
25550;DHT22;13444;50.562;7.262;2023-05-10T20:55:35;13.40;99.90
25550;DHT22;13444;50.562;7.262;2023-05-10T20:58:00;13.40;99.90
25550;DHT22;13444;50.562;7.262;2023-05-10T21:00:26;13.40;99.90
25550;DHT22;13444;50.562;7.262;2023-05-10T21:02:51;13.40;99.90
25550;DHT22;13444;50.562;7.262;2023-05-10T21:05:17;13.30;99.90
25550;DHT22;13444;50.562;7.262;2023-05-10T21:07:43;13.30;99.90
25550;DHT22;13444;50.562;7.262;2023-05-10T21:10:09;13.30;99.90
25550;DHT22;13444;50.562;7.262;2023-05-10T21:12:35;13.20;99.90
25550;DHT22;13444;50.562;7.262;2023-05-10T21:15:02;13.20;99.90
25550;DHT22;13444;50.562;7.262;2023-05-10T21:17:28;13.20;99.90
25550;DHT22;13444;50.562;7.262;2023-05-10T21:19:53;13.20;99.90
25550;DHT22;13444;50.562;7.262;2023-05-10T21:22:19;13.10;99.90
25550;DHT22;13444;50.562;7.262;2023-05-10T21:24:45;13.10;99.90
25550;DHT22;13444;50.562;7.262;2023-05-10T21:27:10;13.00;99.90
25550;DHT22;13444;50.562;7.262;2023-05-10T21:29:36;13.10;99.90
25550;DHT22;13444;50.562;7.262;2023-05-10T21:32:01;13.10;99.90
25550;DHT22;13444;50.562;7.262;2023-05-10T21:34:27;13.10;99.90
25550;DHT22;13444;50.562;7.262;2023-05-10T21:36:53;13.10;99.90
25550;DHT22;13444;50.562;7.262;2023-05-10T21:39:19;13.10;99.90
25550;DHT22;13444;50.562;7.262;2023-05-10T21:41:44;13.00;99.90
25550;DHT22;13444;50.562;7.262;2023-05-10T21:44:10;13.10;99.90
25550;DHT22;13444;50.562;7.262;2023-05-10T21:46:36;13.00;99.90
25550;DHT22;13444;50.562;7.262;2023-05-10T21:49:01;13.00;99.90
25550;DHT22;13444;50.562;7.262;2023-05-10T21:51:27;13.00;99.90
25550;DHT22;13444;50.562;7.262;2023-05-10T21:53:53;12.90;99.90
25550;DHT22;13444;50.562;7.262;2023-05-10T21:56:19;12.90;99.90
25550;DHT22;13444;50.562;7.262;2023-05-10T21:58:44;12.90;99.90
25550;DHT22;13444;50.562;7.262;2023-05-10T22:01:10;12.90;99.90
25550;DHT22;13444;50.562;7.262;2023-05-10T22:03:36;12.90;99.90
25550;DHT22;13444;50.562;7.262;2023-05-10T22:06:02;12.90;99.90
25550;DHT22;13444;50.562;7.262;2023-05-10T22:08:27;12.80;99.90
25550;DHT22;13444;50.562;7.262;2023-05-10T22:10:53;12.80;99.90
25550;DHT22;13444;50.562;7.262;2023-05-10T22:13:18;12.70;99.90
25550;DHT22;13444;50.562;7.262;2023-05-10T22:15:44;12.70;99.90
25550;DHT22;13444;50.562;7.262;2023-05-10T22:18:09;12.70;99.90
25550;DHT22;13444;50.562;7.262;2023-05-10T22:20:35;12.70;99.90
25550;DHT22;13444;50.562;7.262;2023-05-10T22:23:01;12.80;99.90
25550;DHT22;13444;50.562;7.262;2023-05-10T22:25:26;12.80;99.90
25550;DHT22;13444;50.562;7.262;2023-05-10T22:27:52;12.90;99.90
25550;DHT22;13444;50.562;7.262;2023-05-10T22:30:18;12.80;99.90
25550;DHT22;13444;50.562;7.262;2023-05-10T22:32:44;12.80;99.90
25550;DHT22;13444;50.562;7.262;2023-05-10T22:35:10;12.90;99.90
25550;DHT22;13444;50.562;7.262;2023-05-10T22:37:36;12.80;99.90
25550;DHT22;13444;50.562;7.262;2023-05-10T22:40:01;12.80;99.90
25550;DHT22;13444;50.562;7.262;2023-05-10T22:42:28;12.90;99.90
25550;DHT22;13444;50.562;7.262;2023-05-10T22:44:53;12.90;99.90
25550;DHT22;13444;50.562;7.262;2023-05-10T22:47:19;12.90;99.90
25550;DHT22;13444;50.562;7.262;2023-05-10T22:49:45;12.90;99.90
25550;DHT22;13444;50.562;7.262;2023-05-10T22:52:11;13.00;99.90
25550;DHT22;13444;50.562;7.262;2023-05-10T22:54:37;13.00;99.90
25550;DHT22;13444;50.562;7.262;2023-05-10T22:57:02;13.00;99.90
25550;DHT22;13444;50.562;7.262;2023-05-10T22:59:28;12.90;99.90
25550;DHT22;13444;50.562;7.262;2023-05-10T23:01:54;12.90;99.90
25550;DHT22;13444;50.562;7.262;2023-05-10T23:04:20;12.90;99.90
25550;DHT22;13444;50.562;7.262;2023-05-10T23:06:45;12.90;99.90
25550;DHT22;13444;50.562;7.262;2023-05-10T23:09:11;12.90;99.90
25550;DHT22;13444;50.562;7.262;2023-05-10T23:11:56;12.80;99.90
25550;DHT22;13444;50.562;7.262;2023-05-10T23:14:43;12.70;99.90
25550;DHT22;13444;50.562;7.262;2023-05-10T23:17:30;12.60;99.90
25550;DHT22;13444;50.562;7.262;2023-05-10T23:20:16;12.50;99.90
25550;DHT22;13444;50.562;7.262;2023-05-10T23:23:01;12.50;99.90
25550;DHT22;13444;50.562;7.262;2023-05-10T23:25:47;12.40;99.90
25550;DHT22;13444;50.562;7.262;2023-05-10T23:28:12;12.40;99.90
25550;DHT22;13444;50.562;7.262;2023-05-10T23:30:38;12.40;99.90
25550;DHT22;13444;50.562;7.262;2023-05-10T23:33:03;12.50;99.90
25550;DHT22;13444;50.562;7.262;2023-05-10T23:35:29;12.50;99.90
25550;DHT22;13444;50.562;7.262;2023-05-10T23:37:54;12.50;99.90
25550;DHT22;13444;50.562;7.262;2023-05-10T23:40:20;12.50;99.90
25550;DHT22;13444;50.562;7.262;2023-05-10T23:42:45;12.40;99.90
25550;DHT22;13444;50.562;7.262;2023-05-10T23:45:11;12.40;99.90
25550;DHT22;13444;50.562;7.262;2023-05-10T23:47:36;12.40;99.90
25550;DHT22;13444;50.562;7.262;2023-05-10T23:50:02;12.30;99.90
25550;DHT22;13444;50.562;7.262;2023-05-10T23:52:29;12.30;99.90
25550;DHT22;13444;50.562;7.262;2023-05-10T23:54:55;12.30;99.90
25550;DHT22;13444;50.562;7.262;2023-05-10T23:57:20;12.30;99.90
25550;DHT22;13444;50.562;7.262;2023-05-10T23:59:46;12.30;99.90
